createdAt,value
2023-01-18T00:01:01.143Z,3.10
2023-01-18T00:03:27.871Z,3.10
2023-01-18T00:05:55.225Z,3.20
2023-01-18T00:08:21.915Z,3.20
2023-01-18T00:10:48.545Z,3.20
2023-01-18T00:13:15.207Z,3.20
2023-01-18T00:15:41.900Z,3.20
2023-01-18T00:18:08.551Z,3.30
2023-01-18T00:20:35.245Z,3.20
2023-01-18T00:23:02.118Z,3.20
2023-01-18T00:25:29.941Z,3.30
2023-01-18T00:27:57.252Z,3.20
2023-01-18T00:30:26.886Z,3.20
2023-01-18T00:32:56.070Z,3.20
2023-01-18T00:35:23.637Z,3.30
2023-01-18T00:37:51.594Z,3.20
2023-01-18T00:40:20.334Z,3.30
2023-01-18T00:43:05.890Z,3.30
2023-01-18T00:45:32.741Z,3.30
2023-01-18T00:47:59.426Z,3.40
2023-01-18T00:50:26.298Z,3.40
2023-01-18T00:52:57.004Z,3.30
2023-01-18T00:55:24.011Z,3.40
2023-01-18T00:57:50.782Z,3.30
2023-01-18T01:00:18.999Z,3.30
2023-01-18T01:02:45.705Z,3.30
2023-01-18T01:05:45.060Z,3.20
2023-01-18T01:08:17.372Z,3.20
2023-01-18T01:10:48.920Z,3.20
2023-01-18T01:13:36.780Z,3.10
2023-01-18T01:16:26.902Z,3.10
2023-01-18T01:19:12.670Z,3.10
2023-01-18T01:21:58.723Z,3.10
2023-01-18T01:24:44.155Z,3.10
2023-01-18T01:27:11.426Z,3.10
2023-01-18T01:29:38.938Z,3.00
2023-01-18T01:32:06.283Z,3.00
2023-01-18T01:34:33.078Z,3.00
2023-01-18T01:36:59.817Z,3.00
2023-01-18T01:39:26.445Z,3.00
2023-01-18T01:41:53.463Z,3.00
2023-01-18T01:44:20.087Z,3.00
2023-01-18T01:46:57.235Z,2.90
2023-01-18T01:49:34.669Z,2.90
2023-01-18T01:52:06.989Z,2.90
2023-01-18T01:54:39.058Z,2.80
2023-01-18T01:57:27.287Z,2.80
2023-01-18T02:00:02.660Z,2.80
2023-01-18T02:02:30.714Z,2.90
2023-01-18T02:04:59.291Z,2.80
2023-01-18T02:07:31.735Z,2.70
2023-01-18T02:09:59.267Z,2.70
2023-01-18T02:12:27.004Z,2.70
2023-01-18T02:14:54.463Z,2.80
2023-01-18T02:17:46.538Z,2.80
2023-01-18T02:20:48.077Z,2.80
2023-01-18T02:23:41.600Z,2.80
2023-01-18T02:26:45.455Z,2.80
2023-01-18T02:29:19.403Z,2.90
2023-01-18T02:32:13.758Z,2.90
2023-01-18T02:34:47.668Z,2.90
2023-01-18T02:37:56.516Z,2.90
2023-01-18T02:40:32.061Z,2.90
2023-01-18T02:43:19.338Z,2.90
2023-01-18T02:46:07.904Z,2.90
2023-01-18T02:48:42.843Z,2.90
2023-01-18T02:51:10.298Z,2.90
2023-01-18T02:53:41.077Z,2.80
2023-01-18T02:56:21.769Z,2.80
2023-01-18T02:59:10.112Z,2.80
2023-01-18T03:02:11.748Z,2.80
2023-01-18T03:04:44.838Z,2.80
2023-01-18T03:07:21.539Z,2.80
2023-01-18T03:09:48.671Z,2.80
2023-01-18T03:12:18.335Z,2.80
2023-01-18T03:15:05.788Z,2.80
2023-01-18T03:17:39.167Z,2.80
2023-01-18T03:20:11.979Z,2.90
2023-01-18T03:23:18.591Z,2.80
2023-01-18T03:25:48.483Z,2.80
2023-01-18T03:28:46.003Z,2.90
2023-01-18T03:31:35.432Z,3.00
2023-01-18T03:34:14.282Z,3.00
2023-01-18T03:36:47.811Z,3.00
2023-01-18T03:39:38.301Z,2.90
2023-01-18T03:42:24.020Z,2.90
2023-01-18T03:45:05.801Z,2.90
2023-01-18T03:47:32.819Z,2.90
2023-01-18T03:49:59.513Z,2.90
2023-01-18T03:52:49.968Z,2.90
2023-01-18T03:55:24.043Z,2.80
2023-01-18T03:57:56.461Z,2.90
2023-01-18T04:00:23.295Z,2.80
2023-01-18T04:02:50.535Z,2.90
2023-01-18T04:05:17.979Z,2.80
2023-01-18T04:07:45.077Z,2.90
2023-01-18T04:10:12.401Z,2.90
2023-01-18T04:12:39.073Z,2.80
2023-01-18T04:15:06.459Z,2.80
2023-01-18T04:17:33.143Z,2.80
2023-01-18T04:19:59.841Z,2.80
2023-01-18T04:22:26.519Z,2.80
2023-01-18T04:24:53.156Z,2.80
2023-01-18T04:27:19.875Z,2.90
2023-01-18T04:29:46.558Z,2.90
2023-01-18T04:32:13.284Z,2.90
2023-01-18T04:34:39.952Z,2.90
2023-01-18T04:37:06.687Z,2.80
2023-01-18T04:39:33.355Z,2.80
2023-01-18T04:42:00.101Z,2.80
2023-01-18T04:44:26.737Z,2.70
2023-01-18T04:46:53.429Z,2.70
2023-01-18T04:49:20.113Z,2.70
2023-01-18T04:51:47.196Z,2.70
2023-01-18T04:54:16.828Z,2.60
2023-01-18T04:56:43.535Z,2.60
2023-01-18T04:59:15.891Z,2.60
2023-01-18T05:01:42.855Z,2.60
2023-01-18T05:04:09.686Z,2.60
2023-01-18T05:06:36.330Z,2.60
2023-01-18T05:09:03.381Z,2.60
2023-01-18T05:11:30.101Z,2.60
2023-01-18T05:13:56.763Z,2.60
2023-01-18T05:16:23.994Z,2.60
2023-01-18T05:18:50.692Z,2.60
2023-01-18T05:21:17.411Z,2.60
2023-01-18T05:23:44.214Z,2.60
2023-01-18T05:26:19.729Z,2.70
2023-01-18T05:28:47.185Z,2.70
2023-01-18T05:31:15.295Z,2.60
2023-01-18T05:33:42.179Z,2.60
2023-01-18T05:36:09.412Z,2.50
2023-01-18T05:38:36.387Z,2.50
2023-01-18T05:41:03.211Z,2.50
2023-01-18T05:43:30.376Z,2.50
2023-01-18T05:45:57.784Z,2.50
2023-01-18T05:48:25.051Z,2.50
2023-01-18T05:50:52.169Z,2.60
2023-01-18T05:53:21.592Z,2.50
2023-01-18T05:55:59.212Z,2.60
2023-01-18T05:58:27.295Z,2.50
2023-01-18T06:00:54.426Z,2.60
2023-01-18T06:03:21.888Z,2.60
2023-01-18T06:05:49.417Z,2.60
2023-01-18T06:08:16.203Z,2.60
2023-01-18T06:10:43.711Z,2.60
2023-01-18T06:13:10.487Z,2.60
2023-01-18T06:15:37.118Z,2.50
2023-01-18T06:18:04.035Z,2.60
2023-01-18T06:20:30.801Z,2.60
2023-01-18T06:22:58.374Z,2.60
2023-01-18T06:25:25.802Z,2.60
2023-01-18T06:27:52.526Z,2.60
2023-01-18T06:30:20.200Z,2.60
2023-01-18T06:32:49.157Z,2.50
2023-01-18T06:35:16.110Z,2.50
2023-01-18T06:37:46.553Z,2.50
2023-01-18T06:40:13.946Z,2.60
2023-01-18T06:42:41.151Z,2.60
2023-01-18T06:45:08.427Z,2.60
2023-01-18T06:47:35.108Z,2.60
2023-01-18T06:50:01.853Z,2.60
2023-01-18T06:52:28.624Z,2.60
2023-01-18T06:54:55.296Z,2.60
2023-01-18T06:57:22.013Z,2.60
2023-01-18T06:59:48.704Z,2.50
2023-01-18T07:02:16.573Z,2.50
2023-01-18T07:04:45.264Z,2.50
2023-01-18T07:07:13.211Z,2.50
2023-01-18T07:09:39.874Z,2.50
2023-01-18T07:12:06.593Z,2.50
2023-01-18T07:14:33.267Z,2.50
2023-01-18T07:16:59.936Z,2.50
2023-01-18T07:19:26.589Z,2.60
2023-01-18T07:21:56.283Z,2.60
2023-01-18T07:24:22.976Z,2.60
2023-01-18T07:26:49.723Z,2.60
2023-01-18T07:29:16.342Z,2.60
2023-01-18T07:31:43.056Z,2.60
2023-01-18T07:34:11.063Z,2.60
2023-01-18T07:36:41.877Z,2.60
2023-01-18T07:39:09.672Z,2.60
2023-01-18T07:41:36.718Z,2.70
2023-01-18T07:44:04.150Z,2.70
2023-01-18T07:46:31.278Z,2.70
2023-01-18T07:48:58.330Z,2.70
2023-01-18T07:51:25.052Z,2.80
2023-01-18T07:53:55.258Z,2.90
2023-01-18T07:56:25.908Z,2.90
2023-01-18T07:58:53.442Z,2.90
2023-01-18T08:01:22.896Z,2.90
2023-01-18T08:03:50.554Z,2.90
2023-01-18T08:06:25.291Z,2.90
2023-01-18T08:08:53.954Z,2.90
2023-01-18T08:11:20.885Z,2.90
2023-01-18T08:13:49.290Z,2.90
2023-01-18T08:16:16.560Z,3.00
2023-01-18T08:18:45.151Z,3.00
2023-01-18T08:21:13.091Z,3.00
2023-01-18T08:23:40.421Z,3.00
2023-01-18T08:26:08.107Z,3.00
2023-01-18T08:28:35.088Z,3.00
2023-01-18T08:31:11.117Z,3.00
2023-01-18T08:33:38.900Z,3.00
2023-01-18T08:36:10.367Z,3.10
2023-01-18T08:38:37.099Z,3.10
2023-01-18T08:41:04.585Z,3.20
2023-01-18T08:43:31.354Z,3.20
2023-01-18T08:45:58.040Z,3.20
2023-01-18T08:48:24.934Z,3.10
2023-01-18T08:50:51.852Z,3.10
2023-01-18T08:53:18.597Z,3.10
2023-01-18T08:55:45.276Z,3.20
2023-01-18T08:58:12.633Z,3.20
2023-01-18T09:00:39.307Z,3.20
2023-01-18T09:03:06.827Z,3.20
2023-01-18T09:05:35.762Z,3.20
2023-01-18T09:08:02.868Z,3.20
2023-01-18T09:10:29.620Z,3.20
2023-01-18T09:12:57.005Z,3.30
2023-01-18T09:15:23.839Z,3.20
2023-01-18T09:17:50.644Z,3.30
2023-01-18T09:20:19.087Z,3.20
2023-01-18T09:22:47.776Z,3.20
2023-01-18T09:25:14.767Z,3.20
2023-01-18T09:27:41.406Z,3.20
2023-01-18T09:30:09.456Z,3.20
2023-01-18T09:32:36.205Z,3.20
2023-01-18T09:35:03.521Z,3.20
2023-01-18T09:37:31.433Z,3.20
2023-01-18T09:39:58.084Z,3.30
2023-01-18T09:42:34.609Z,3.20
2023-01-18T09:45:02.033Z,3.20
2023-01-18T09:47:34.321Z,3.20
2023-01-18T09:50:13.170Z,3.10
2023-01-18T09:53:05.419Z,3.20
2023-01-18T09:56:01.017Z,3.20
2023-01-18T09:58:47.503Z,3.30
2023-01-18T10:01:18.462Z,3.20
2023-01-18T10:03:51.617Z,3.30
2023-01-18T10:06:32.809Z,3.30
2023-01-18T10:09:12.112Z,3.30
2023-01-18T10:12:16.091Z,3.30
2023-01-18T10:15:10.513Z,3.40
2023-01-18T10:17:42.449Z,3.50
2023-01-18T10:20:38.958Z,3.60
2023-01-18T10:23:25.708Z,3.70
2023-01-18T10:25:56.022Z,3.80
2023-01-18T10:28:48.799Z,3.80
2023-01-18T10:31:36.661Z,3.80
2023-01-18T10:34:11.740Z,3.90
2023-01-18T10:36:43.447Z,4.00
2023-01-18T10:39:29.042Z,4.00
2023-01-18T10:42:02.536Z,4.00
2023-01-18T10:44:31.549Z,4.00
2023-01-18T10:47:00.505Z,3.90
2023-01-18T10:49:48.520Z,3.90
2023-01-18T10:52:26.278Z,3.70
2023-01-18T10:54:57.582Z,3.80
2023-01-18T10:57:31.749Z,3.70
2023-01-18T10:59:59.708Z,3.60
2023-01-18T11:02:39.009Z,3.60
2023-01-18T11:05:40.179Z,3.50
2023-01-18T11:08:34.458Z,3.60
2023-01-18T11:11:05.635Z,3.70
2023-01-18T11:13:49.253Z,3.70
2023-01-18T11:16:23.696Z,3.60
2023-01-18T11:19:17.195Z,3.70
2023-01-18T11:21:46.432Z,3.70
2023-01-18T11:24:16.852Z,3.70
2023-01-18T11:27:07.200Z,3.70
2023-01-18T11:29:42.636Z,3.70
2023-01-18T11:32:24.788Z,3.70
2023-01-18T11:34:54.319Z,3.70
2023-01-18T11:37:33.427Z,3.70
2023-01-18T11:40:26.823Z,3.80
2023-01-18T11:43:22.468Z,3.80
2023-01-18T11:45:59.525Z,3.70
2023-01-18T11:48:38.096Z,3.80
2023-01-18T11:51:20.939Z,3.70
2023-01-18T11:54:14.826Z,3.80
2023-01-18T11:56:47.931Z,3.80
2023-01-18T11:59:21.847Z,3.80
2023-01-18T12:02:24.667Z,3.80
2023-01-18T12:04:54.437Z,3.80
2023-01-18T12:07:35.771Z,3.90
2023-01-18T12:10:04.368Z,4.00
2023-01-18T12:12:54.332Z,4.00
2023-01-18T12:15:41.839Z,4.00
2023-01-18T12:18:23.993Z,4.00
2023-01-18T12:21:02.629Z,4.00
2023-01-18T12:23:54.667Z,4.00
2023-01-18T12:26:38.611Z,4.00
2023-01-18T12:29:30.271Z,4.10
2023-01-18T12:32:10.497Z,4.00
2023-01-18T12:34:43.880Z,4.00
2023-01-18T12:37:32.268Z,4.00
2023-01-18T12:40:27.045Z,4.00
2023-01-18T12:43:20.884Z,4.10
2023-01-18T12:46:10.005Z,4.10
2023-01-18T12:48:52.294Z,4.10
2023-01-18T12:51:23.106Z,4.10
2023-01-18T12:54:11.722Z,4.00
2023-01-18T12:56:42.823Z,4.00
2023-01-18T12:59:22.637Z,4.00
2023-01-18T13:01:57.517Z,4.00
2023-01-18T13:04:31.368Z,3.90
2023-01-18T13:07:02.453Z,3.90
2023-01-18T13:09:37.000Z,3.90
2023-01-18T13:12:05.733Z,3.90
2023-01-18T13:14:51.515Z,3.80
2023-01-18T13:17:49.728Z,3.80
2023-01-18T13:20:19.612Z,3.70
2023-01-18T13:23:02.885Z,3.70
2023-01-18T13:25:29.501Z,3.70
2023-01-18T13:28:05.593Z,3.80
2023-01-18T13:30:46.407Z,3.70
2023-01-18T13:33:14.530Z,3.80
2023-01-18T13:35:51.331Z,3.80
2023-01-18T13:38:27.505Z,3.80
2023-01-18T13:41:02.750Z,3.70
2023-01-18T13:43:32.797Z,3.70
2023-01-18T13:46:21.143Z,3.70
2023-01-18T13:49:00.071Z,3.80
2023-01-18T13:51:42.015Z,3.90
2023-01-18T13:54:18.807Z,3.90
2023-01-18T13:57:09.467Z,4.00
2023-01-18T13:59:46.578Z,4.00
2023-01-18T14:02:34.050Z,4.10
2023-01-18T14:05:00.672Z,4.10
2023-01-18T14:07:27.914Z,4.10
2023-01-18T14:10:00.243Z,4.10
2023-01-18T14:12:47.860Z,4.10
2023-01-18T14:15:27.756Z,4.20
2023-01-18T14:17:58.924Z,4.20
2023-01-18T14:20:57.977Z,4.20
2023-01-18T14:23:54.352Z,4.20
2023-01-18T14:26:22.387Z,4.20
2023-01-18T14:29:15.896Z,4.10
2023-01-18T14:31:55.931Z,4.10
2023-01-18T14:34:36.636Z,4.00
2023-01-18T14:37:04.967Z,4.10
2023-01-18T14:39:33.204Z,4.00
2023-01-18T14:42:05.133Z,4.00
2023-01-18T14:44:56.822Z,3.90
2023-01-18T14:47:30.632Z,3.80
2023-01-18T14:49:58.188Z,3.80
2023-01-18T14:52:30.629Z,3.80
2023-01-18T14:54:57.342Z,3.70
2023-01-18T14:57:24.977Z,3.70
2023-01-18T14:59:54.864Z,3.70
2023-01-18T15:02:25.888Z,3.70
2023-01-18T15:05:21.845Z,3.60
2023-01-18T15:07:55.202Z,3.60
2023-01-18T15:10:24.135Z,3.70
2023-01-18T15:12:54.528Z,3.70
2023-01-18T15:15:27.689Z,3.60
2023-01-18T15:18:10.495Z,3.60
2023-01-18T15:20:55.049Z,3.60
2023-01-18T15:23:22.916Z,3.50
2023-01-18T15:25:52.155Z,3.50
2023-01-18T15:28:23.999Z,3.50
2023-01-18T15:30:53.587Z,3.50
2023-01-18T15:33:23.280Z,3.40
2023-01-18T15:35:53.971Z,3.40
2023-01-18T15:38:20.779Z,3.40
2023-01-18T15:41:00.142Z,3.40
2023-01-18T15:43:41.086Z,3.40
2023-01-18T15:46:10.691Z,3.30
2023-01-18T15:48:50.396Z,3.30
2023-01-18T15:51:18.161Z,3.20
2023-01-18T15:53:52.374Z,3.30
2023-01-18T15:56:26.308Z,3.30
2023-01-18T15:58:55.856Z,3.20
2023-01-18T16:01:29.243Z,3.20
2023-01-18T16:03:59.202Z,3.20
2023-01-18T16:06:26.535Z,3.20
2023-01-18T16:09:11.810Z,3.10
2023-01-18T16:11:41.800Z,3.10
2023-01-18T16:14:31.177Z,3.10
2023-01-18T16:17:12.380Z,3.20
2023-01-18T16:19:45.458Z,3.10
2023-01-18T16:22:27.277Z,3.20
2023-01-18T16:25:01.359Z,3.10
2023-01-18T16:27:31.100Z,3.10
2023-01-18T16:30:05.378Z,3.10
2023-01-18T16:32:35.575Z,3.10
2023-01-18T16:35:11.094Z,3.10
2023-01-18T16:37:38.265Z,3.00
2023-01-18T16:40:09.151Z,3.10
2023-01-18T16:42:56.257Z,3.00
2023-01-18T16:45:23.036Z,2.90
2023-01-18T16:47:49.686Z,2.90
2023-01-18T16:50:17.333Z,3.00
2023-01-18T16:52:44.753Z,3.00
2023-01-18T16:55:15.542Z,3.00
2023-01-18T16:57:43.024Z,3.00
2023-01-18T17:00:22.839Z,3.00
2023-01-18T17:02:50.048Z,2.90
2023-01-18T17:05:17.560Z,3.00
2023-01-18T17:07:44.475Z,2.90
2023-01-18T17:10:27.329Z,2.80
2023-01-18T17:12:55.196Z,2.80
2023-01-18T17:15:21.946Z,2.80
2023-01-18T17:17:49.839Z,2.80
2023-01-18T17:20:22.847Z,2.80
2023-01-18T17:22:51.169Z,2.90
2023-01-18T17:25:18.913Z,2.90
2023-01-18T17:27:46.367Z,2.90
2023-01-18T17:30:15.808Z,2.90
2023-01-18T17:32:42.614Z,3.00
2023-01-18T17:35:10.825Z,3.00
2023-01-18T17:40:22.465Z,3.00
2023-01-18T17:42:52.043Z,3.00
2023-01-18T17:45:18.973Z,3.00
2023-01-18T17:47:45.658Z,3.00
2023-01-18T17:50:17.410Z,3.00
2023-01-18T17:52:44.206Z,3.10
2023-01-18T17:55:13.125Z,3.00
2023-01-18T17:57:40.403Z,3.00
2023-01-18T18:00:08.508Z,3.10
2023-01-18T18:02:35.489Z,3.00
2023-01-18T18:05:02.955Z,3.00
2023-01-18T18:07:30.151Z,3.00
2023-01-18T18:10:00.838Z,3.00
2023-01-18T18:12:29.359Z,3.10
2023-01-18T18:14:56.118Z,3.00
2023-01-18T18:17:27.399Z,3.00
2023-01-18T18:19:54.273Z,3.00
2023-01-18T18:22:21.980Z,3.00
2023-01-18T18:24:49.498Z,3.00
2023-01-18T18:27:17.307Z,3.00
2023-01-18T18:29:44.411Z,3.00
2023-01-18T18:32:11.571Z,3.00
2023-01-18T18:34:38.246Z,3.00
2023-01-18T18:37:05.297Z,3.00
2023-01-18T18:39:33.100Z,2.90
2023-01-18T18:42:00.350Z,2.90
2023-01-18T18:44:27.351Z,3.00
2023-01-18T18:46:54.064Z,3.00
2023-01-18T18:49:20.839Z,2.90
2023-01-18T18:51:47.487Z,3.00
2023-01-18T18:54:14.270Z,3.00
2023-01-18T18:56:42.167Z,3.00
2023-01-18T18:59:08.941Z,3.00
2023-01-18T19:01:35.792Z,3.00
2023-01-18T19:04:03.039Z,3.00
2023-01-18T19:06:29.728Z,2.90
2023-01-18T19:08:57.254Z,3.00
2023-01-18T19:11:23.936Z,3.00
2023-01-18T19:13:50.637Z,2.90
2023-01-18T19:16:17.442Z,2.90
2023-01-18T19:18:44.233Z,2.90
2023-01-18T19:21:11.103Z,2.90
2023-01-18T19:23:37.801Z,2.90
2023-01-18T19:26:04.603Z,2.90
2023-01-18T19:28:31.344Z,2.90
2023-01-18T19:31:05.967Z,2.80
2023-01-18T19:33:32.904Z,2.80
2023-01-18T19:36:10.786Z,2.80
2023-01-18T19:38:45.775Z,2.70
2023-01-18T19:41:13.691Z,2.80
2023-01-18T19:43:40.421Z,2.70
2023-01-18T19:46:09.513Z,2.70
2023-01-18T19:48:37.952Z,2.70
2023-01-18T19:51:20.803Z,2.60
2023-01-18T19:53:48.200Z,2.60
2023-01-18T19:56:14.905Z,2.60
2023-01-18T19:58:41.679Z,2.60
2023-01-18T20:01:26.699Z,2.60
2023-01-18T20:04:01.112Z,2.60
2023-01-18T20:06:27.811Z,2.50
2023-01-18T20:08:54.877Z,2.50
2023-01-18T20:11:21.873Z,2.50
2023-01-18T20:13:50.089Z,2.40
2023-01-18T20:16:20.132Z,2.40
2023-01-18T20:18:48.740Z,2.30
2023-01-18T20:21:17.309Z,2.20
2023-01-18T20:23:45.734Z,2.10
2023-01-18T20:26:15.383Z,2.10
2023-01-18T20:28:43.473Z,2.10
2023-01-18T20:31:11.108Z,2.00
2023-01-18T20:33:38.436Z,2.00
2023-01-18T20:36:06.819Z,2.10
2023-01-18T20:38:34.313Z,2.00
2023-01-18T20:41:01.721Z,2.00
2023-01-18T20:43:28.550Z,2.00
2023-01-18T20:46:10.154Z,1.90
2023-01-18T20:48:37.832Z,1.90
2023-01-18T20:51:07.382Z,1.80
2023-01-18T20:53:34.502Z,1.80
2023-01-18T20:56:02.719Z,1.80
2023-01-18T20:58:29.888Z,1.80
2023-01-18T21:00:56.626Z,1.70
2023-01-18T21:03:23.330Z,1.70
2023-01-18T21:05:49.991Z,1.70
2023-01-18T21:08:17.721Z,1.60
2023-01-18T21:10:44.396Z,1.50
2023-01-18T21:13:11.727Z,1.50
2023-01-18T21:15:39.199Z,1.50
2023-01-18T21:18:06.984Z,1.60
2023-01-18T21:20:34.164Z,1.60
2023-01-18T21:23:01.710Z,1.50
2023-01-18T21:25:29.159Z,1.50
2023-01-18T21:27:57.912Z,1.50
2023-01-18T21:30:25.022Z,1.40
2023-01-18T21:32:51.773Z,1.40
2023-01-18T21:35:18.886Z,1.40
2023-01-18T21:37:45.590Z,1.40
2023-01-18T21:40:12.658Z,1.30
2023-01-18T21:42:57.729Z,1.30
2023-01-18T21:45:43.277Z,1.20
2023-01-18T21:48:10.050Z,1.20
2023-01-18T21:50:58.889Z,1.10
2023-01-18T21:53:44.426Z,1.00
2023-01-18T21:56:11.097Z,0.90
2023-01-18T21:58:56.182Z,0.90
2023-01-18T22:01:33.813Z,0.80
2023-01-18T22:04:20.797Z,0.80
2023-01-18T22:06:48.196Z,0.80
2023-01-18T22:09:15.364Z,0.70
2023-01-18T22:11:42.632Z,0.70
2023-01-18T22:14:10.072Z,0.70
2023-01-18T22:16:37.548Z,0.70
2023-01-18T22:19:07.488Z,0.60
2023-01-18T22:21:34.587Z,0.70
2023-01-18T22:24:01.289Z,0.60
2023-01-18T22:26:29.601Z,0.60
2023-01-18T22:28:56.940Z,0.60
2023-01-18T22:31:24.299Z,0.60
2023-01-18T22:33:51.600Z,0.60
2023-01-18T22:36:18.583Z,0.60
2023-01-18T22:38:45.808Z,0.50
2023-01-18T22:41:18.040Z,0.40
2023-01-18T22:43:45.512Z,0.40
2023-01-18T22:46:14.714Z,0.40
2023-01-18T22:48:42.215Z,0.30
2023-01-18T22:51:12.153Z,0.30
2023-01-18T22:53:39.283Z,0.30
2023-01-18T22:56:12.664Z,0.30
2023-01-18T22:58:40.158Z,0.30
2023-01-18T23:01:18.417Z,0.30
2023-01-18T23:03:45.423Z,0.30
2023-01-18T23:06:12.825Z,0.30
2023-01-18T23:08:43.048Z,0.30
2023-01-18T23:11:39.281Z,0.30
2023-01-18T23:14:24.827Z,0.20
2023-01-18T23:17:10.126Z,0.20
2023-01-18T23:19:37.110Z,0.20
2023-01-18T23:22:06.861Z,0.20
2023-01-18T23:24:35.731Z,0.10
2023-01-18T23:27:03.491Z,0.10
2023-01-18T23:29:30.248Z,0.00
2023-01-18T23:31:57.511Z,0.00
2023-01-18T23:34:25.239Z,0.00
2023-01-18T23:36:52.134Z,0.00
2023-01-18T23:39:37.278Z,0.00
2023-01-18T23:42:22.895Z,0.00
2023-01-18T23:45:08.375Z,-0.10
2023-01-18T23:47:54.273Z,-0.20
2023-01-18T23:50:39.803Z,-0.20
2023-01-18T23:53:28.484Z,-0.20
2023-01-18T23:55:55.170Z,-0.30
2023-01-18T23:58:21.806Z,-0.30
